Wakefield, Mississippi
Current Conditions -  °F | °C
As of 7:35 AM on Sunday 23 Nov 2014 (Local Time) from KUTA Reporting Station
Light Rain Light Rain  
Wind Chill: 59°   Ceiling: 1200
Heat Index: 59°   Visibility: 10mi
Dew Point: 55°   Wind: 13mph
Humidity: 88%   Direction: 140°SE
Pressure: 29.72"   Gusts: NA
Location:  34.6957°N, 90.0062°W
Report Text: KUTA 231335Z AUTO 14011KT 10SM -RA OVC012 15/13 A2972 RMK AO2
Loading
Personal Weather Stations






























Interactive Weather Map New forecast layout! Learn more

10-Day Weather Forecast

Advertisements
Track Severe Weather on mobile